Time;durP1;ratioP1;P1;durP2;ratioP2;P2;SDS_P1;SDS_P2;PMS_P1;PMS_P2;Temp;Humidity;BMP_temperature;BMP_pressure;BME280_temperature;BME280_humidity;BME280_pressure;Samples;Min_cycle;Max_cycle;Signal;HPM_P1;HPM_P2
2022/12/25 00:00:18;;;;;;;189.10;68.93;;;;;;;;;;1035470;28;20025;-77
2022/12/25 00:00:49;;;;;;;173.98;65.05;;;;;;;;;;1034745;28;20013;-77
2022/12/25 00:01:21;;;;;;;178.60;66.90;;;;;;;;;;1035977;28;20017;-77
2022/12/25 00:01:51;;;;;;;169.23;63.78;;;;;;;;;;1031757;28;20033;-77
2022/12/25 00:02:22;;;;;;;175.45;66.70;;;;;;;;;;1027824;28;20025;-77
2022/12/25 00:02:53;;;;;;;194.05;65.70;;;;;;;;;;1030380;28;20505;-77
2022/12/25 00:03:23;;;;;;;198.30;69.38;;;;;;;;;;1029665;28;20467;-77
2022/12/25 00:03:55;;;;;;;188.77;65.50;;;;;;;;;;1034005;28;20018;-77
2022/12/25 00:04:26;;;;;;;161.60;63.97;;;;;;;;;;1035660;28;20028;-77
2022/12/25 00:04:56;;;;;;;169.45;65.68;;;;;;;;;;1035681;28;20032;-77
2022/12/25 00:05:27;;;;;;;197.27;67.43;;;;;;;;;;1035721;28;20497;-77
2022/12/25 00:05:58;;;;;;;193.10;66.45;;;;;;;;;;1035849;28;20104;-77
2022/12/25 00:06:29;;;;;;;200.02;68.78;;;;;;;;;;1033936;28;20127;-77
2022/12/25 00:06:59;;;;;;;176.00;66.07;;;;;;;;;;1031171;28;20449;-77
2022/12/25 00:07:30;;;;;;;178.63;69.13;;;;;;;;;;1032674;28;20466;-77
2022/12/25 00:08:00;;;;;;;171.00;63.85;;;;;;;;;;1029421;28;20126;-77
2022/12/25 00:08:31;;;;;;;163.85;64.03;;;;;;;;;;1033446;28;20108;-77
2022/12/25 00:09:02;;;;;;;184.15;70.38;;;;;;;;;;1035680;28;20100;-77
2022/12/25 00:09:32;;;;;;;194.63;68.72;;;;;;;;;;1035657;28;20057;-77
2022/12/25 00:10:03;;;;;;;195.05;65.35;;;;;;;;;;1035539;28;20097;-77
2022/12/25 00:10:34;;;;;;;189.40;66.35;;;;;;;;;;1035921;28;20577;-77
2022/12/25 00:11:06;;;;;;;200.25;70.32;;;;;;;;;;1035752;28;20029;-77
2022/12/25 00:11:37;;;;;;;196.73;70.03;;;;;;;;;;1031964;28;20067;-77
2022/12/25 00:12:07;;;;;;;186.05;68.80;;;;;;;;;;1035724;28;20553;-77
2022/12/25 00:12:38;;;;;;;158.43;64.70;;;;;;;;;;1031824;28;20029;-77
2022/12/25 00:13:09;;;;;;;188.02;67.28;;;;;;;;;;1031586;28;20426;-77
2022/12/25 00:13:40;;;;;;;200.70;68.05;;;;;;;;;;1035387;28;20089;-77
2022/12/25 00:14:10;;;;;;;187.80;67.25;;;;;;;;;;1035700;28;20117;-77
2022/12/25 00:14:41;;;;;;;170.43;64.20;;;;;;;;;;1036133;28;20029;-77
2022/12/25 00:15:11;;;;;;;189.48;68.20;;;;;;;;;;1035994;28;20022;-77
2022/12/25 00:15:42;;;;;;;215.80;75.75;;;;;;;;;;1035792;28;20018;-77
2022/12/25 00:16:17;;;;;;;190.70;65.43;;;;;;;;;;1035787;28;20113;-77
2022/12/25 00:16:47;;;;;;;195.88;67.57;;;;;;;;;;1035173;28;20029;-77
2022/12/25 00:17:18;;;;;;;201.07;68.88;;;;;;;;;;1035964;28;20028;-77
2022/12/25 00:17:48;;;;;;;183.05;66.47;;;;;;;;;;1036153;28;20545;-77
2022/12/25 00:18:19;;;;;;;201.73;61.95;;;;;;;;;;1034905;28;20018;-77
2022/12/25 00:18:50;;;;;;;189.50;72.57;;;;;;;;;;1036026;28;20025;-77
2022/12/25 00:19:20;;;;;;;210.77;64.78;;;;;;;;;;1036050;28;20072;-77
2022/12/25 00:19:51;;;;;;;194.23;66.63;;;;;;;;;;1035706;28;20024;-77
2022/12/25 00:20:22;;;;;;;183.60;66.35;;;;;;;;;;1031451;28;20034;-77
2022/12/25 00:20:56;;;;;;;178.50;63.75;;;;;;;;;;1031768;28;20070;-77
2022/12/25 00:21:27;;;;;;;182.65;62.40;;;;;;;;;;1031847;28;20390;-77
2022/12/25 00:21:57;;;;;;;173.70;67.90;;;;;;;;;;1030923;28;20502;-77
2022/12/25 00:22:28;;;;;;;195.95;66.80;;;;;;;;;;1031484;28;20026;-77
2022/12/25 00:22:59;;;;;;;186.25;63.35;;;;;;;;;;1027604;28;20524;-77
2022/12/25 00:23:29;;;;;;;189.27;69.88;;;;;;;;;;1027736;28;20058;-77
2022/12/25 00:24:00;;;;;;;196.85;70.22;;;;;;;;;;1031529;28;20116;-77
2022/12/25 00:24:31;;;;;;;196.55;70.63;;;;;;;;;;1031502;28;20014;-77
2022/12/25 00:25:01;;;;;;;183.43;62.28;;;;;;;;;;1027792;28;20081;-77
2022/12/25 00:25:32;;;;;;;176.85;62.70;;;;;;;;;;1027797;28;20121;-77
2022/12/25 00:26:04;;;;;;;171.27;65.50;;;;;;;;;;1031760;28;20391;-77
2022/12/25 00:26:35;;;;;;;172.40;62.00;;;;;;;;;;1035680;28;20033;-77
2022/12/25 00:27:05;;;;;;;168.68;65.95;;;;;;;;;;1036119;28;20064;-77
2022/12/25 00:27:40;;;;;;;204.95;72.95;;;;;;;;;;1035597;28;20026;-78
2022/12/25 00:28:10;;;;;;;199.75;70.97;;;;;;;;;;1035731;28;20026;-77
2022/12/25 00:28:41;;;;;;;183.43;67.68;;;;;;;;;;1031668;28;20582;-77
2022/12/25 00:29:12;;;;;;;198.43;69.45;;;;;;;;;;1031495;28;20022;-77
2022/12/25 00:29:43;;;;;;;192.05;71.75;;;;;;;;;;1031828;28;20026;-77
2022/12/25 00:30:13;;;;;;;175.52;66.05;;;;;;;;;;1035248;28;20029;-77
2022/12/25 00:30:44;;;;;;;190.15;70.55;;;;;;;;;;1035691;28;20021;-77
2022/12/25 00:31:16;;;;;;;205.70;67.18;;;;;;;;;;1035673;28;20025;-77
2022/12/25 00:31:46;;;;;;;192.85;70.88;;;;;;;;;;1035768;28;20030;-77
2022/12/25 00:32:17;;;;;;;169.75;67.53;;;;;;;;;;1035631;28;20094;-77
2022/12/25 00:32:47;;;;;;;178.93;68.45;;;;;;;;;;1035852;28;20500;-77
2022/12/25 00:33:18;;;;;;;183.32;64.95;;;;;;;;;;1035888;28;20017;-77
2022/12/25 00:33:49;;;;;;;181.00;69.13;;;;;;;;;;1035937;28;20127;-77
2022/12/25 00:34:20;;;;;;;189.13;65.85;;;;;;;;;;1036068;28;20017;-77
2022/12/25 00:34:51;;;;;;;186.93;66.10;;;;;;;;;;1035019;28;20108;-77
2022/12/25 00:35:21;;;;;;;174.23;65.65;;;;;;;;;;1035494;28;20030;-77
2022/12/25 00:35:58;;;;;;;165.77;65.97;;;;;;;;;;1035799;28;20497;-76
2022/12/25 00:36:29;;;;;;;184.60;65.20;;;;;;;;;;1035711;28;20410;-77
2022/12/25 00:36:59;;;;;;;197.75;70.82;;;;;;;;;;1035851;28;20112;-77
2022/12/25 00:37:30;;;;;;;167.15;64.85;;;;;;;;;;1035994;28;20516;-77
2022/12/25 00:38:01;;;;;;;213.15;70.88;;;;;;;;;;1035797;28;20057;-77
2022/12/25 00:38:32;;;;;;;178.30;64.18;;;;;;;;;;1031556;28;20021;-76
2022/12/25 00:39:03;;;;;;;190.13;69.80;;;;;;;;;;1031685;28;20014;-77
2022/12/25 00:39:34;;;;;;;188.98;66.90;;;;;;;;;;1031872;28;20034;-77
2022/12/25 00:40:04;;;;;;;195.05;66.20;;;;;;;;;;1035876;28;20025;-77
2022/12/25 00:40:42;;;;;;;180.68;68.57;;;;;;;;;;1035622;28;20030;-77
2022/12/25 00:41:14;;;;;;;178.80;66.22;;;;;;;;;;1032496;28;20414;-77
2022/12/25 00:42:34;;;;;;;177.00;62.58;;;;;;;;;;1031660;28;20116;-77
2022/12/25 00:43:04;;;;;;;187.60;65.75;;;;;;;;;;1033667;28;20394;-77
2022/12/25 00:43:35;;;;;;;186.73;64.75;;;;;;;;;;1035522;28;20082;-77
2022/12/25 00:44:06;;;;;;;193.55;69.53;;;;;;;;;;1035600;28;20018;-77
2022/12/25 00:44:37;;;;;;;195.75;68.35;;;;;;;;;;1035636;28;20095;-77
2022/12/25 00:45:07;;;;;;;194.77;67.88;;;;;;;;;;1034597;28;20045;-77
2022/12/25 00:45:38;;;;;;;185.20;68.07;;;;;;;;;;1035912;28;20080;-77
2022/12/25 00:46:10;;;;;;;177.85;67.72;;;;;;;;;;1035945;28;20022;-77
2022/12/25 00:46:41;;;;;;;172.02;63.72;;;;;;;;;;1035305;28;20536;-77
2022/12/25 00:47:12;;;;;;;211.70;66.38;;;;;;;;;;1035472;28;20472;-77
2022/12/25 00:47:42;;;;;;;185.23;69.68;;;;;;;;;;1034742;28;20026;-77
2022/12/25 00:48:13;;;;;;;217.35;68.43;;;;;;;;;;1035413;28;20026;-77
2022/12/25 00:48:46;;;;;;;184.05;69.97;;;;;;;;;;1035726;28;20460;-77
2022/12/25 00:49:17;;;;;;;174.73;65.20;;;;;;;;;;1031313;28;20399;-77
2022/12/25 00:49:47;;;;;;;212.50;69.03;;;;;;;;;;1031466;28;20058;-77
2022/12/25 00:50:18;;;;;;;201.05;68.75;;;;;;;;;;1031521;28;20105;-77
2022/12/25 00:50:51;;;;;;;189.27;68.35;;;;;;;;;;1031609;28;20029;-77
2022/12/25 00:51:22;;;;;;;181.88;65.13;;;;;;;;;;1035514;28;20049;-77
2022/12/25 00:51:53;;;;;;;209.70;69.32;;;;;;;;;;1035596;28;20030;-78
2022/12/25 00:52:23;;;;;;;201.82;67.50;;;;;;;;;;1031440;28;20014;-77
2022/12/25 00:52:54;;;;;;;184.07;66.38;;;;;;;;;;1031672;28;20173;-77
2022/12/25 00:53:24;;;;;;;186.20;68.95;;;;;;;;;;1031452;28;20105;-77
2022/12/25 00:53:55;;;;;;;185.13;66.57;;;;;;;;;;1034828;28;20018;-77
2022/12/25 00:54:25;;;;;;;180.98;68.78;;;;;;;;;;1034458;28;20018;-77
2022/12/25 00:54:56;;;;;;;182.70;66.55;;;;;;;;;;1035609;28;20075;-77
2022/12/25 00:55:27;;;;;;;224.05;71.05;;;;;;;;;;1035823;28;20054;-77
2022/12/25 00:56:02;;;;;;;207.60;68.43;;;;;;;;;;1035952;28;20018;-77
2022/12/25 00:56:33;;;;;;;217.73;69.75;;;;;;;;;;1035570;28;20029;-78
2022/12/25 00:57:03;;;;;;;191.35;72.72;;;;;;;;;;1034454;28;20010;-77
2022/12/25 00:57:34;;;;;;;208.82;69.97;;;;;;;;;;1035506;28;20137;-77
2022/12/25 00:58:04;;;;;;;196.20;66.18;;;;;;;;;;1035631;28;20038;-77
2022/12/25 00:58:35;;;;;;;167.02;67.40;;;;;;;;;;1035585;28;20053;-77
2022/12/25 00:59:05;;;;;;;190.57;66.28;;;;;;;;;;1035666;28;20046;-77
2022/12/25 00:59:36;;;;;;;207.80;67.65;;;;;;;;;;1035606;28;20037;-77
2022/12/25 01:00:07;;;;;;;187.18;65.90;;;;;;;;;;1035279;28;20030;-77
2022/12/25 01:00:38;;;;;;;184.63;68.28;;;;;;;;;;1035312;28;20026;-77
2022/12/25 01:01:11;;;;;;;179.07;68.95;;;;;;;;;;1031337;28;20037;-77
2022/12/25 01:01:42;;;;;;;192.73;66.75;;;;;;;;;;1034992;28;20096;-77
2022/12/25 01:02:24;;;;;;;199.45;64.43;;;;;;;;;;1031351;28;20030;-77
2022/12/25 01:02:55;;;;;;;191.68;67.03;;;;;;;;;;1028515;28;20046;-77
2022/12/25 01:03:26;;;;;;;208.13;72.28;;;;;;;;;;1031510;28;20089;-77
2022/12/25 01:03:56;;;;;;;183.88;63.08;;;;;;;;;;1030285;28;20422;-77
2022/12/25 01:04:27;;;;;;;190.23;71.13;;;;;;;;;;1031705;28;20022;-77
2022/12/25 01:04:58;;;;;;;192.80;67.38;;;;;;;;;;1033700;28;20566;-77
2022/12/25 01:05:28;;;;;;;197.25;70.10;;;;;;;;;;1032738;28;20117;-77
2022/12/25 01:06:02;;;;;;;186.27;64.65;;;;;;;;;;1035632;28;20061;-77
2022/12/25 01:06:33;;;;;;;178.07;66.40;;;;;;;;;;1034697;28;20021;-77
2022/12/25 01:07:04;;;;;;;200.63;67.10;;;;;;;;;;1035517;28;20608;-77
2022/12/25 01:07:34;;;;;;;180.77;63.00;;;;;;;;;;1035511;28;20033;-77
2022/12/25 01:08:05;;;;;;;176.40;67.72;;;;;;;;;;1035556;28;20113;-77
2022/12/25 01:08:36;;;;;;;205.98;69.97;;;;;;;;;;1035852;28;20022;-77
2022/12/25 01:10:51;;;;;;;192.32;65.18;;;;;;;;;;1035686;28;20025;-77
2022/12/25 01:11:22;;;;;;;185.90;69.65;;;;;;;;;;1035360;28;20013;-77
2022/12/25 01:11:53;;;;;;;189.95;67.88;;;;;;;;;;1035674;28;20499;-77
2022/12/25 01:12:23;;;;;;;190.95;63.42;;;;;;;;;;1035383;28;20018;-77
2022/12/25 01:12:54;;;;;;;185.65;65.22;;;;;;;;;;1034544;28;20041;-77
2022/12/25 01:13:25;;;;;;;172.38;66.72;;;;;;;;;;1035393;28;21138;-77
2022/12/25 01:13:55;;;;;;;180.23;64.07;;;;;;;;;;1035213;28;20030;-77
2022/12/25 01:14:26;;;;;;;185.30;65.55;;;;;;;;;;1029167;28;20117;-77
2022/12/25 01:14:57;;;;;;;186.82;66.45;;;;;;;;;;1029301;28;20514;-77
2022/12/25 01:15:27;;;;;;;192.20;66.22;;;;;;;;;;1031435;28;20394;-77
2022/12/25 01:15:58;;;;;;;190.77;66.38;;;;;;;;;;1035638;28;20053;-77
2022/12/25 01:16:29;;;;;;;166.82;63.03;;;;;;;;;;1031301;28;20026;-77
2022/12/25 01:16:59;;;;;;;184.98;67.38;;;;;;;;;;1031503;28;20034;-77
2022/12/25 01:17:30;;;;;;;192.65;65.05;;;;;;;;;;1035575;28;20132;-77
2022/12/25 01:18:00;;;;;;;171.90;59.78;;;;;;;;;;1035369;28;20034;-77
2022/12/25 01:18:31;;;;;;;194.82;71.65;;;;;;;;;;1035618;28;20108;-77
2022/12/25 01:19:02;;;;;;;190.57;68.10;;;;;;;;;;1035908;28;20500;-77
2022/12/25 01:19:32;;;;;;;203.38;71.93;;;;;;;;;;1035797;28;20029;-77
2022/12/25 01:20:03;;;;;;;217.68;76.03;;;;;;;;;;1035800;28;20014;-77
2022/12/25 01:20:34;;;;;;;184.98;70.00;;;;;;;;;;1035846;28;20014;-77
2022/12/25 01:21:06;;;;;;;180.93;63.40;;;;;;;;;;1035801;28;20026;-77
2022/12/25 01:21:37;;;;;;;182.48;67.18;;;;;;;;;;1035745;28;20043;-77
2022/12/25 01:22:08;;;;;;;184.18;69.40;;;;;;;;;;1035777;28;20017;-77
2022/12/25 01:22:38;;;;;;;193.40;68.82;;;;;;;;;;1035885;28;20474;-77
2022/12/25 01:23:09;;;;;;;191.77;65.13;;;;;;;;;;1035700;28;20034;-77
2022/12/25 01:23:40;;;;;;;184.38;67.78;;;;;;;;;;1035420;28;20462;-77
2022/12/25 01:24:10;;;;;;;210.68;64.47;;;;;;;;;;1031201;28;20026;-77
2022/12/25 01:24:43;;;;;;;180.55;71.22;;;;;;;;;;1031492;28;20037;-77
2022/12/25 01:25:14;;;;;;;168.30;62.00;;;;;;;;;;1027733;28;20569;-77
2022/12/25 01:25:44;;;;;;;179.98;66.47;;;;;;;;;;1031970;28;20085;-77
2022/12/25 01:26:16;;;;;;;174.43;61.70;;;;;;;;;;1035496;28;20413;-77
2022/12/25 01:26:47;;;;;;;174.73;65.65;;;;;;;;;;1031540;28;20022;-77
2022/12/25 01:27:17;;;;;;;188.90;65.97;;;;;;;;;;1035015;28;20022;-77
2022/12/25 01:27:48;;;;;;;179.35;62.90;;;;;;;;;;1035127;28;20551;-77
2022/12/25 01:28:18;;;;;;;156.48;58.17;;;;;;;;;;1031440;28;20026;-77
2022/12/25 01:28:49;;;;;;;169.05;62.25;;;;;;;;;;1035533;28;20009;-77
2022/12/25 01:29:20;;;;;;;175.38;60.50;;;;;;;;;;1033576;28;20029;-77
2022/12/25 01:29:51;;;;;;;179.85;64.47;;;;;;;;;;1033794;28;20022;-77
2022/12/25 01:30:21;;;;;;;180.50;59.85;;;;;;;;;;1035435;28;20030;-77
2022/12/25 01:30:52;;;;;;;182.68;68.70;;;;;;;;;;1035667;28;20022;-77
2022/12/25 01:31:23;;;;;;;175.93;61.63;;;;;;;;;;1035726;28;20025;-77
2022/12/25 01:31:53;;;;;;;178.80;62.85;;;;;;;;;;1035830;28;20383;-77
2022/12/25 01:32:24;;;;;;;163.85;61.47;;;;;;;;;;1035578;28;20033;-77
2022/12/25 01:32:55;;;;;;;180.13;65.90;;;;;;;;;;1035892;28;20164;-77
2022/12/25 01:33:25;;;;;;;185.35;64.80;;;;;;;;;;1035213;28;20080;-77
2022/12/25 01:33:56;;;;;;;166.10;60.63;;;;;;;;;;1032514;28;20017;-77
2022/12/25 01:34:26;;;;;;;165.55;61.25;;;;;;;;;;1033632;28;20022;-77
2022/12/25 01:34:57;;;;;;;156.27;59.80;;;;;;;;;;1034801;28;20030;-77
2022/12/25 01:35:27;;;;;;;139.45;63.38;;;;;;;;;;1035413;28;20029;-77
2022/12/25 01:35:58;;;;;;;171.00;60.92;;;;;;;;;;1036386;28;20085;-78
2022/12/25 01:36:29;;;;;;;164.57;59.40;;;;;;;;;;1036014;28;20030;-77
2022/12/25 01:36:59;;;;;;;149.80;56.50;;;;;;;;;;1035867;28;20053;-77
2022/12/25 01:37:30;;;;;;;168.70;62.17;;;;;;;;;;1035945;28;20022;-77
2022/12/25 01:38:00;;;;;;;187.43;61.10;;;;;;;;;;1035223;28;20088;-77
2022/12/25 01:38:31;;;;;;;160.32;60.10;;;;;;;;;;1035526;28;20025;-77
2022/12/25 01:39:01;;;;;;;174.82;66.78;;;;;;;;;;1035430;28;20021;-77
2022/12/25 01:39:32;;;;;;;185.05;70.63;;;;;;;;;;1035387;28;20072;-78
2022/12/25 01:40:03;;;;;;;169.55;64.63;;;;;;;;;;1035454;28;20021;-77
2022/12/25 01:40:34;;;;;;;188.88;64.28;;;;;;;;;;1035538;28;20013;-77
2022/12/25 01:41:04;;;;;;;177.65;60.85;;;;;;;;;;1031324;28;20051;-77
2022/12/25 01:41:35;;;;;;;187.80;65.97;;;;;;;;;;1031652;28;20133;-77
2022/12/25 01:42:05;;;;;;;166.27;64.40;;;;;;;;;;1035520;28;20084;-77
2022/12/25 01:42:36;;;;;;;171.32;66.63;;;;;;;;;;1035429;28;20025;-77
2022/12/25 01:43:24;;;;;;;183.77;67.90;;;;;;;;;;1035311;28;20068;-77
2022/12/25 01:44:00;;;;;;;167.57;67.18;;;;;;;;;;1035717;28;20515;-77
2022/12/25 01:44:36;;;;;;;177.52;63.30;;;;;;;;;;1034968;28;20026;-77
2022/12/25 01:45:29;;;;;;;173.93;64.22;;;;;;;;;;1035773;28;20037;-77
2022/12/25 01:46:02;;;;;;;182.30;60.53;;;;;;;;;;1035461;28;20084;-77
2022/12/25 01:46:33;;;;;;;176.35;64.35;;;;;;;;;;1035543;28;20397;-77
2022/12/25 01:47:04;;;;;;;163.45;60.28;;;;;;;;;;1034345;28;20025;-77
2022/12/25 01:47:35;;;;;;;186.18;64.82;;;;;;;;;;1035462;28;20025;-77
2022/12/25 01:48:08;;;;;;;171.25;66.22;;;;;;;;;;1035707;28;20056;-77
2022/12/25 01:48:38;;;;;;;172.32;66.68;;;;;;;;;;1035570;28;20049;-77
2022/12/25 01:49:11;;;;;;;165.82;65.60;;;;;;;;;;1035532;28;20056;-77
2022/12/25 01:49:45;;;;;;;152.27;61.60;;;;;;;;;;1031546;28;20444;-77
2022/12/25 01:50:15;;;;;;;174.77;64.53;;;;;;;;;;1032283;28;20484;-77
2022/12/25 01:50:49;;;;;;;195.10;68.18;;;;;;;;;;1032591;28;20030;-77
2022/12/25 01:51:25;;;;;;;199.52;65.43;;;;;;;;;;1032742;28;20527;-77
2022/12/25 01:51:58;;;;;;;169.63;68.30;;;;;;;;;;1035549;28;20157;-77
2022/12/25 01:52:30;;;;;;;197.13;61.25;;;;;;;;;;1035697;28;20482;-77
2022/12/25 01:53:01;;;;;;;200.60;65.50;;;;;;;;;;1035349;28;20510;-77
2022/12/25 01:53:32;;;;;;;194.57;65.75;;;;;;;;;;1035350;28;20018;-77
2022/12/25 01:54:04;;;;;;;159.60;60.38;;;;;;;;;;1035548;28;20018;-77
2022/12/25 01:54:42;;;;;;;156.13;62.15;;;;;;;;;;1034336;28;20065;-77
2022/12/25 01:55:13;;;;;;;169.25;63.45;;;;;;;;;;1034786;28;20025;-77
2022/12/25 01:55:44;;;;;;;192.90;63.47;;;;;;;;;;1035408;28;20029;-77
2022/12/25 01:56:15;;;;;;;172.20;62.63;;;;;;;;;;1035496;28;20036;-77
2022/12/25 01:56:47;;;;;;;189.45;67.15;;;;;;;;;;1035417;28;20045;-77
2022/12/25 01:57:28;;;;;;;186.02;69.05;;;;;;;;;;1035375;28;20533;-77
2022/12/25 01:57:58;;;;;;;175.75;66.13;;;;;;;;;;1035740;28;20029;-77
2022/12/25 01:58:29;;;;;;;173.38;62.92;;;;;;;;;;1035411;28;20108;-77
2022/12/25 01:59:01;;;;;;;177.95;60.65;;;;;;;;;;1031288;28;20025;-77
2022/12/25 01:59:32;;;;;;;178.52;65.47;;;;;;;;;;1031467;28;20022;-77
2022/12/25 02:00:03;;;;;;;154.57;55.58;;;;;;;;;;1031633;28;20026;-77
2022/12/25 02:00:34;;;;;;;165.07;59.83;;;;;;;;;;1034648;28;20033;-77
2022/12/25 02:01:05;;;;;;;165.52;61.35;;;;;;;;;;1031261;28;20502;-77
2022/12/25 02:01:35;;;;;;;189.27;64.72;;;;;;;;;;1029460;28;20025;-77
2022/12/25 02:02:07;;;;;;;182.93;64.97;;;;;;;;;;1028563;28;20023;-77
2022/12/25 02:02:38;;;;;;;190.70;60.80;;;;;;;;;;1029207;28;20097;-77
2022/12/25 02:03:08;;;;;;;166.38;63.90;;;;;;;;;;1033743;28;20433;-77
2022/12/25 02:03:41;;;;;;;158.95;58.38;;;;;;;;;;1035262;28;20056;-77
2022/12/25 02:04:14;;;;;;;171.43;61.28;;;;;;;;;;1031217;28;20030;-77
2022/12/25 02:04:51;;;;;;;189.50;66.47;;;;;;;;;;1026438;28;20078;-77
2022/12/25 02:05:26;;;;;;;172.82;61.10;;;;;;;;;;1028380;28;20356;-77
2022/12/25 02:05:58;;;;;;;215.02;66.40;;;;;;;;;;1029094;28;20041;-77
2022/12/25 02:06:29;;;;;;;186.02;60.08;;;;;;;;;;1033104;28;20181;-77
2022/12/25 02:07:00;;;;;;;168.73;60.10;;;;;;;;;;1031161;28;20045;-77
2022/12/25 02:07:32;;;;;;;147.23;56.25;;;;;;;;;;1031534;28;20026;-77
2022/12/25 02:08:08;;;;;;;175.43;58.90;;;;;;;;;;1034372;28;20014;-77
2022/12/25 02:08:39;;;;;;;161.50;57.83;;;;;;;;;;1035552;28;20022;-77
2022/12/25 02:09:10;;;;;;;179.80;63.90;;;;;;;;;;1034609;28;20036;-77
2022/12/25 02:09:40;;;;;;;175.20;65.00;;;;;;;;;;1035537;28;20036;-77
2022/12/25 02:10:11;;;;;;;183.75;62.63;;;;;;;;;;1035141;28;20600;-77
2022/12/25 02:10:43;;;;;;;176.23;63.67;;;;;;;;;;1035526;28;20026;-77
2022/12/25 02:11:55;;;;;;;192.40;64.57;;;;;;;;;;1035417;28;20032;-77
2022/12/25 02:12:05;;;;;;;173.68;59.15;;;;;;;;;;1035337;28;20559;-77
2022/12/25 02:12:36;;;;;;;168.00;65.70;;;;;;;;;;1035320;28;20497;-77
2022/12/25 02:13:06;;;;;;;193.20;66.50;;;;;;;;;;1035737;28;20022;-77
2022/12/25 02:13:37;;;;;;;186.02;62.55;;;;;;;;;;1035766;28;20022;-77
2022/12/25 02:14:08;;;;;;;182.10;65.00;;;;;;;;;;1035339;28;20021;-77
2022/12/25 02:14:38;;;;;;;177.93;64.03;;;;;;;;;;1035451;28;20034;-77
2022/12/25 02:15:19;;;;;;;168.27;59.83;;;;;;;;;;1035260;28;20484;-77
2022/12/25 02:15:50;;;;;;;164.25;58.25;;;;;;;;;;1035578;28;20029;-77
2022/12/25 02:16:21;;;;;;;181.25;67.68;;;;;;;;;;1035381;28;20026;-77
2022/12/25 02:16:58;;;;;;;198.32;63.92;;;;;;;;;;1035316;28;20544;-77
2022/12/25 02:17:31;;;;;;;187.10;59.95;;;;;;;;;;1031054;28;20069;-77
2022/12/25 02:18:22;;;;;;;187.82;60.00;;;;;;;;;;1031132;28;20049;-77
2022/12/25 02:18:55;;;;;;;180.13;65.80;;;;;;;;;;1014923;28;20552;-77
2022/12/25 02:19:28;;;;;;;165.98;57.63;;;;;;;;;;1033746;28;20115;-77
2022/12/25 02:20:15;;;;;;;170.85;62.80;;;;;;;;;;1035340;28;20018;-77
2022/12/25 02:20:54;;;;;;;155.55;62.03;;;;;;;;;;1035497;28;20018;-77
2022/12/25 02:21:40;;;;;;;178.03;56.17;;;;;;;;;;1035047;28;20025;-77
2022/12/25 02:22:19;;;;;;;157.25;55.35;;;;;;;;;;1035213;28;20022;-77
2022/12/25 02:23:01;;;;;;;179.45;56.70;;;;;;;;;;1030559;28;20026;-77
2022/12/25 02:23:32;;;;;;;160.38;56.65;;;;;;;;;;1030513;28;20027;-77
2022/12/25 02:24:16;;;;;;;180.98;62.72;;;;;;;;;;1031452;28;20022;-77
2022/12/25 02:25:02;;;;;;;165.52;59.13;;;;;;;;;;1034106;28;20025;-77
2022/12/25 02:25:51;;;;;;;160.38;57.10;;;;;;;;;;1035704;28;20116;-77
2022/12/25 02:26:50;;;;;;;155.90;54.03;;;;;;;;;;1034247;28;20022;-77
2022/12/25 02:27:23;;;;;;;144.32;55.40;;;;;;;;;;1034337;28;20033;-77
2022/12/25 02:28:03;;;;;;;178.05;57.40;;;;;;;;;;1034397;28;20018;-77
2022/12/25 02:28:44;;;;;;;185.98;58.75;;;;;;;;;;1035194;28;20487;-77
2022/12/25 02:29:32;;;;;;;163.55;54.92;;;;;;;;;;1035020;28;20137;-77
2022/12/25 02:30:07;;;;;;;170.63;57.88;;;;;;;;;;1035322;28;20064;-77
2022/12/25 02:30:41;;;;;;;157.95;57.08;;;;;;;;;;1035267;28;20502;-77
2022/12/25 02:31:15;;;;;;;188.18;61.20;;;;;;;;;;1034483;28;20138;-77
2022/12/25 02:31:49;;;;;;;187.30;61.55;;;;;;;;;;1035192;28;20024;-77
2022/12/25 02:32:26;;;;;;;192.45;63.40;;;;;;;;;;1035317;28;20492;-77
2022/12/25 02:34:07;;;;;;;174.43;60.60;;;;;;;;;;1034460;28;20022;-77
2022/12/25 02:34:56;;;;;;;169.55;55.83;;;;;;;;;;1032530;28;20051;-77
2022/12/25 02:35:29;;;;;;;192.82;63.22;;;;;;;;;;1034579;28;20449;-77
2022/12/25 02:36:04;;;;;;;190.60;64.10;;;;;;;;;;1032703;28;20421;-77
2022/12/25 02:36:55;;;;;;;164.80;60.13;;;;;;;;;;1032924;28;20061;-77
2022/12/25 02:37:30;;;;;;;189.90;59.90;;;;;;;;;;1034432;28;20033;-77
2022/12/25 02:38:05;;;;;;;179.38;62.47;;;;;;;;;;1031176;28;20502;-77
2022/12/25 02:38:37;;;;;;;190.65;63.17;;;;;;;;;;1031065;28;20018;-77
2022/12/25 02:40:07;;;;;;;193.77;61.33;;;;;;;;;;1035629;28;20386;-77
2022/12/25 02:40:43;;;;;;;158.90;62.95;;;;;;;;;;1036096;28;20102;-77
2022/12/25 02:41:14;;;;;;;188.50;66.10;;;;;;;;;;1035921;28;20033;-77
2022/12/25 02:41:46;;;;;;;183.85;63.85;;;;;;;;;;1036071;28;20022;-77
2022/12/25 02:42:22;;;;;;;177.07;59.47;;;;;;;;;;1033031;28;20541;-77
2022/12/25 03:06:42;;;;;;;189.32;61.42;;;;;;;;;;1037635;28;19913;-77
2022/12/25 03:07:17;;;;;;;200.07;66.82;;;;;;;;;;1036922;28;20018;-77
2022/12/25 03:07:48;;;;;;;199.40;66.47;;;;;;;;;;1036966;28;20033;-77
2022/12/25 03:08:21;;;;;;;191.43;68.28;;;;;;;;;;1034017;28;20509;-77
2022/12/25 03:11:29;;;;;;;195.38;67.35;;;;;;;;;;1034362;28;20448;-77
2022/12/25 03:11:31;;;;;;;195.02;61.65;;;;;;;;;;1037438;28;20026;-77
2022/12/25 03:12:06;;;;;;;199.57;67.10;;;;;;;;;;1037664;28;20022;-77
2022/12/25 03:12:55;;;;;;;207.15;68.75;;;;;;;;;;1033289;28;20045;-77
2022/12/25 03:13:28;;;;;;;186.10;65.57;;;;;;;;;;1031525;28;20651;-77
2022/12/25 03:16:49;;;;;;;177.30;67.00;;;;;;;;;;1035238;28;20108;-77
2022/12/25 03:16:49;;;;;;;177.30;65.85;;;;;;;;;;1022738;29;20031;-77
2022/12/25 03:17:20;;;;;;;205.10;71.30;;;;;;;;;;1021472;29;20071;-77
2022/12/25 03:17:51;;;;;;;198.73;68.20;;;;;;;;;;1017554;29;20060;-77
2022/12/25 03:18:23;;;;;;;229.38;74.60;;;;;;;;;;1017488;29;20171;-77
2022/12/25 03:18:55;;;;;;;196.32;71.60;;;;;;;;;;1032091;28;20060;-77
2022/12/25 03:26:54;;;;;;;173.07;67.17;;;;;;;;;;1035701;28;20022;-77
2022/12/25 03:27:25;;;;;;;188.60;71.30;;;;;;;;;;1036093;28;20018;-77
2022/12/25 03:27:56;;;;;;;191.93;65.28;;;;;;;;;;1036085;28;20476;-77
2022/12/25 03:28:26;;;;;;;180.65;64.57;;;;;;;;;;1035965;28;20057;-77
2022/12/25 03:28:57;;;;;;;190.52;63.90;;;;;;;;;;1035965;28;20022;-77
2022/12/25 03:31:19;;;;;;;166.73;65.97;;;;;;;;;;1035523;28;20026;-77
2022/12/25 03:31:57;;;;;;;156.70;66.82;;;;;;;;;;1035193;28;20014;-77
2022/12/25 03:32:46;;;;;;;198.15;68.90;;;;;;;;;;1035652;28;20029;-77
2022/12/25 03:33:34;;;;;;;196.00;66.30;;;;;;;;;;1035420;28;20100;-77
2022/12/25 03:35:24;;;;;;;161.88;60.25;;;;;;;;;;1036066;28;20022;-77
2022/12/25 03:36:02;;;;;;;176.90;66.40;;;;;;;;;;1036267;28;20021;-77
2022/12/25 03:36:43;;;;;;;181.77;65.07;;;;;;;;;;1034951;28;20133;-77
2022/12/25 04:36:12;;;;;;;187.68;73.25;;;;;;;;;;1036082;28;20021;-77
2022/12/25 04:36:42;;;;;;;227.18;79.55;;;;;;;;;;1036032;28;20496;-77
2022/12/25 04:37:13;;;;;;;219.63;71.97;;;;;;;;;;1035937;28;20121;-77
2022/12/25 04:37:44;;;;;;;205.35;78.65;;;;;;;;;;1035618;28;20053;-77
2022/12/25 04:38:14;;;;;;;216.98;76.00;;;;;;;;;;1031320;28;20568;-77
2022/12/25 04:38:45;;;;;;;208.43;75.28;;;;;;;;;;1031619;28;20029;-77
2022/12/25 04:39:15;;;;;;;193.10;71.00;;;;;;;;;;1031413;28;20572;-77
2022/12/25 04:39:46;;;;;;;214.00;74.38;;;;;;;;;;1034958;28;20105;-77
2022/12/25 04:40:16;;;;;;;186.20;73.80;;;;;;;;;;1035519;28;20022;-77
2022/12/25 04:40:47;;;;;;;196.45;71.20;;;;;;;;;;1035746;28;20022;-77
2022/12/25 04:41:17;;;;;;;207.90;76.00;;;;;;;;;;1035844;28;20029;-77
2022/12/25 04:41:48;;;;;;;210.07;73.75;;;;;;;;;;1035632;28;20022;-77
2022/12/25 04:42:18;;;;;;;204.75;73.10;;;;;;;;;;1035532;28;20033;-77
2022/12/25 04:42:50;;;;;;;205.60;75.80;;;;;;;;;;1035626;28;20018;-77
2022/12/25 04:43:23;;;;;;;209.75;76.72;;;;;;;;;;1035665;28;20409;-77
2022/12/25 04:43:54;;;;;;;201.43;78.78;;;;;;;;;;1035630;28;20113;-77
2022/12/25 04:44:25;;;;;;;214.45;80.47;;;;;;;;;;1035386;28;20029;-77
2022/12/25 04:44:55;;;;;;;211.93;73.75;;;;;;;;;;1035669;28;20025;-77
2022/12/25 04:45:26;;;;;;;213.52;79.35;;;;;;;;;;1035590;28;20033;-77
2022/12/25 04:45:57;;;;;;;189.48;76.15;;;;;;;;;;1035376;28;20041;-77
2022/12/25 04:46:28;;;;;;;201.50;74.70;;;;;;;;;;1035415;28;20022;-77
2022/12/25 04:46:58;;;;;;;194.88;70.95;;;;;;;;;;1035669;28;20030;-77
2022/12/25 04:47:29;;;;;;;209.43;77.15;;;;;;;;;;1035606;28;20073;-77
2022/12/25 04:47:59;;;;;;;198.20;70.43;;;;;;;;;;1032944;28;20026;-77
2022/12/25 04:48:32;;;;;;;204.40;73.55;;;;;;;;;;1031728;28;20407;-77